الصفحة الرئيسية
METAR-TAF:

METAR-TAF

مطار :

مطار دالاس فورت ورث الدولي

دالاس / فورت وورث, تكساس, الولايات المتحدة

دائرة عرض: 32-53-49N, خط طول: 097-01-19W, ارتفاع: 183 متر

مراقبة الطقس الحالي

تاريخ ووقت الإصدار 17 دقيقة قبل الساعة 06:53UTC
ريح 11 عقدة من الجنوب
درجة الحرارة 25°درجة مئوية
الرطوبة 69%
ضغط 1016 hPa
الرؤية: 16.1 كم
غيوم مفككة على ارتفاع 30000 قدم

METAR: KDFW 260653Z 17011KT 10SM BKN300 25/19 A2999 RMK AO2 SLP146 T02500189

زمن: 02:10 (07:10 UTC)

توقعات

تاريخ ووقت الإصدار 1ساعة و 40 دقيقة قبل الساعة 05:30UTC
التوقعات صالحة من26 الساعة 06 UTC إلى 27 الساعة 12 UTC
ريح 13 عقدة من الجنوب/الجنوب الشرقي
الرؤية: 10 كم
غيوم مفككة على ارتفاع 30000 قدم
من 26 الساعة 1000 UTC
ريح 15 عقدة من الجنوب
الرؤية: 10 كم
غيوم مفككة على ارتفاع 2500 قدم
من 26 الساعة 1500 UTC
ريح 17 عقدة من الجنوب
الرؤية: 10 كم
غيوم متفرقة على ارتفاع 4000 قدم
من 27 الساعة 1000 UTC
ريح 13 عقدة من الجنوب
الرؤية: 10 كم
غيوم مفككة على ارتفاع 2500 قدم

TAF: KDFW 260530Z 2606/2712 16013KT P6SM BKN300 FM261000 17015KT P6SM BKN025 FM261500 17017KT P6SM SCT040 FM271000 17013KT P6SM BKN025

أرصاد الطقس والتوقعات من أكثر من 4000 مطار (تقارير الطقس للمطار METAR والتنبؤ بالطقس بالمطارTAF).

المحطات المتاحة هي النقط الصفراء والحمراء على الخريطة.

حرك المؤشر فوق النقطة لمعرفة اسم المحطة.

ثم انقر لمعرفة أرصاد وتوقعات الطقس.

لتغيير الخارطة: اضغط على الأزرار الخضراء مع رمز الصليب الأسود للتكبير. على الزر الأخضر مع شرطة للتصغير، أو على الأسهم الخضراء للخرائط المجاورة.


METAR-TAF: